sensor_id;sensor_type;location;lat;lon;timestamp;P1;durP1;ratioP1;P2;durP2;ratioP2
37131;SDS011;23035;50.032;21.978;2023-04-25T00:00:14;14.68;;;13.10;;
37131;SDS011;23035;50.032;21.978;2023-04-25T00:05:40;12.50;;;11.35;;
37131;SDS011;23035;50.032;21.978;2023-04-25T00:10:44;11.98;;;10.77;;
37131;SDS011;23035;50.032;21.978;2023-04-25T00:15:48;11.40;;;10.50;;
37131;SDS011;23035;50.032;21.978;2023-04-25T00:20:53;12.02;;;10.90;;
37131;SDS011;23035;50.032;21.978;2023-04-25T00:25:58;12.45;;;11.45;;
37131;SDS011;23035;50.032;21.978;2023-04-25T00:31:01;11.93;;;10.85;;
37131;SDS011;23035;50.032;21.978;2023-04-25T00:36:07;12.77;;;11.75;;
37131;SDS011;23035;50.032;21.978;2023-04-25T00:41:12;11.68;;;10.88;;
37131;SDS011;23035;50.032;21.978;2023-04-25T00:46:16;11.25;;;10.45;;
37131;SDS011;23035;50.032;21.978;2023-04-25T00:51:21;10.23;;;9.32;;
37131;SDS011;23035;50.032;21.978;2023-04-25T00:56:26;9.82;;;9.02;;
37131;SDS011;23035;50.032;21.978;2023-04-25T01:01:30;9.50;;;8.63;;
37131;SDS011;23035;50.032;21.978;2023-04-25T01:06:35;10.23;;;9.43;;
37131;SDS011;23035;50.032;21.978;2023-04-25T01:11:39;10.18;;;9.32;;
37131;SDS011;23035;50.032;21.978;2023-04-25T01:16:44;9.20;;;8.40;;
37131;SDS011;23035;50.032;21.978;2023-04-25T01:21:49;9.20;;;8.43;;
37131;SDS011;23035;50.032;21.978;2023-04-25T01:31:59;10.18;;;9.18;;
37131;SDS011;23035;50.032;21.978;2023-04-25T01:37:05;9.85;;;8.90;;
37131;SDS011;23035;50.032;21.978;2023-04-25T01:42:09;10.60;;;9.65;;
37131;SDS011;23035;50.032;21.978;2023-04-25T01:47:13;10.38;;;9.38;;
37131;SDS011;23035;50.032;21.978;2023-04-25T01:52:19;9.93;;;9.23;;
37131;SDS011;23035;50.032;21.978;2023-04-25T01:57:24;11.90;;;10.90;;
37131;SDS011;23035;50.032;21.978;2023-04-25T02:02:28;12.30;;;10.85;;
37131;SDS011;23035;50.032;21.978;2023-04-25T02:07:34;12.75;;;11.30;;
37131;SDS011;23035;50.032;21.978;2023-04-25T02:12:38;14.43;;;11.07;;
37131;SDS011;23035;50.032;21.978;2023-04-25T02:18:12;12.52;;;10.93;;
37131;SDS011;23035;50.032;21.978;2023-04-25T02:23:20;13.85;;;11.23;;
37131;SDS011;23035;50.032;21.978;2023-04-25T02:28:24;14.40;;;11.90;;
37131;SDS011;23035;50.032;21.978;2023-04-25T02:33:29;11.70;;;10.60;;
37131;SDS011;23035;50.032;21.978;2023-04-25T02:38:34;12.13;;;10.68;;
37131;SDS011;23035;50.032;21.978;2023-04-25T02:43:39;22.00;;;16.38;;
37131;SDS011;23035;50.032;21.978;2023-04-25T02:48:43;17.08;;;13.98;;
37131;SDS011;23035;50.032;21.978;2023-04-25T02:53:49;9.63;;;8.73;;
37131;SDS011;23035;50.032;21.978;2023-04-25T03:03:58;17.85;;;13.10;;
37131;SDS011;23035;50.032;21.978;2023-04-25T03:09:07;9.05;;;8.15;;
37131;SDS011;23035;50.032;21.978;2023-04-25T03:14:14;8.25;;;7.20;;
37131;SDS011;23035;50.032;21.978;2023-04-25T03:19:21;7.53;;;6.82;;
37131;SDS011;23035;50.032;21.978;2023-04-25T03:24:30;8.70;;;7.20;;
37131;SDS011;23035;50.032;21.978;2023-04-25T03:29:37;8.18;;;7.35;;
37131;SDS011;23035;50.032;21.978;2023-04-25T03:34:45;7.75;;;7.05;;
37131;SDS011;23035;50.032;21.978;2023-04-25T03:39:54;13.18;;;8.27;;
37131;SDS011;23035;50.032;21.978;2023-04-25T03:45:10;8.52;;;7.63;;
37131;SDS011;23035;50.032;21.978;2023-04-25T03:50:17;9.45;;;7.40;;
37131;SDS011;23035;50.032;21.978;2023-04-25T03:55:26;9.18;;;7.82;;
37131;SDS011;23035;50.032;21.978;2023-04-25T04:00:33;10.57;;;6.80;;
37131;SDS011;23035;50.032;21.978;2023-04-25T04:10:47;7.22;;;5.72;;
37131;SDS011;23035;50.032;21.978;2023-04-25T04:15:55;8.30;;;6.45;;
37131;SDS011;23035;50.032;21.978;2023-04-25T04:21:03;9.25;;;6.55;;
37131;SDS011;23035;50.032;21.978;2023-04-25T04:26:15;7.47;;;6.68;;
37131;SDS011;23035;50.032;21.978;2023-04-25T04:31:31;8.70;;;6.18;;
37131;SDS011;23035;50.032;21.978;2023-04-25T04:36:38;6.20;;;5.57;;
37131;SDS011;23035;50.032;21.978;2023-04-25T04:41:48;8.85;;;6.30;;
37131;SDS011;23035;50.032;21.978;2023-04-25T04:47:33;8.45;;;6.18;;
37131;SDS011;23035;50.032;21.978;2023-04-25T04:53:13;7.75;;;5.93;;
37131;SDS011;23035;50.032;21.978;2023-04-25T04:58:21;10.48;;;7.45;;
37131;SDS011;23035;50.032;21.978;2023-04-25T05:03:54;9.57;;;6.65;;
37131;SDS011;23035;50.032;21.978;2023-04-25T05:09:42;12.82;;;8.95;;
37131;SDS011;23035;50.032;21.978;2023-04-25T05:15:08;13.98;;;7.93;;
37131;SDS011;23035;50.032;21.978;2023-04-25T05:20:33;8.57;;;6.65;;
37131;SDS011;23035;50.032;21.978;2023-04-25T05:25:51;7.05;;;6.30;;
37131;SDS011;23035;50.032;21.978;2023-04-25T05:31:32;11.70;;;7.63;;
37131;SDS011;23035;50.032;21.978;2023-04-25T05:36:59;7.40;;;5.43;;
37131;SDS011;23035;50.032;21.978;2023-04-25T05:42:08;10.38;;;5.78;;
37131;SDS011;23035;50.032;21.978;2023-04-25T05:47:34;7.10;;;6.15;;
37131;SDS011;23035;50.032;21.978;2023-04-25T05:52:54;22.42;;;12.18;;
37131;SDS011;23035;50.032;21.978;2023-04-25T05:58:07;28.40;;;15.45;;
37131;SDS011;23035;50.032;21.978;2023-04-25T06:03:15;8.85;;;6.72;;
37131;SDS011;23035;50.032;21.978;2023-04-25T06:08:25;23.63;;;12.63;;
37131;SDS011;23035;50.032;21.978;2023-04-25T06:13:32;12.82;;;9.15;;
37131;SDS011;23035;50.032;21.978;2023-04-25T06:18:41;13.95;;;9.65;;
37131;SDS011;23035;50.032;21.978;2023-04-25T06:23:46;70.78;;;30.17;;
37131;SDS011;23035;50.032;21.978;2023-04-25T06:28:56;20.77;;;14.10;;
37131;SDS011;23035;50.032;21.978;2023-04-25T06:34:04;24.63;;;18.30;;
37131;SDS011;23035;50.032;21.978;2023-04-25T06:39:12;24.27;;;18.35;;
37131;SDS011;23035;50.032;21.978;2023-04-25T06:44:17;27.50;;;19.65;;
37131;SDS011;23035;50.032;21.978;2023-04-25T06:49:29;25.27;;;18.25;;
37131;SDS011;23035;50.032;21.978;2023-04-25T06:54:35;23.33;;;16.20;;
37131;SDS011;23035;50.032;21.978;2023-04-25T07:00:06;14.65;;;10.48;;
37131;SDS011;23035;50.032;21.978;2023-04-25T07:05:15;9.18;;;7.78;;
37131;SDS011;23035;50.032;21.978;2023-04-25T07:10:23;8.27;;;7.45;;
37131;SDS011;23035;50.032;21.978;2023-04-25T07:15:30;13.55;;;6.68;;
37131;SDS011;23035;50.032;21.978;2023-04-25T07:20:39;7.80;;;5.85;;
37131;SDS011;23035;50.032;21.978;2023-04-25T07:25:45;8.23;;;5.72;;
37131;SDS011;23035;50.032;21.978;2023-04-25T07:30:56;5.60;;;4.68;;
37131;SDS011;23035;50.032;21.978;2023-04-25T07:36:04;3.70;;;3.40;;
37131;SDS011;23035;50.032;21.978;2023-04-25T07:41:11;6.13;;;4.18;;
37131;SDS011;23035;50.032;21.978;2023-04-25T07:46:16;3.70;;;3.40;;
37131;SDS011;23035;50.032;21.978;2023-04-25T07:51:22;3.60;;;3.30;;
37131;SDS011;23035;50.032;21.978;2023-04-25T07:56:33;3.88;;;3.53;;
37131;SDS011;23035;50.032;21.978;2023-04-25T08:01:55;4.30;;;3.88;;
37131;SDS011;23035;50.032;21.978;2023-04-25T08:07:04;4.22;;;3.67;;
37131;SDS011;23035;50.032;21.978;2023-04-25T08:12:22;3.80;;;3.50;;
37131;SDS011;23035;50.032;21.978;2023-04-25T08:17:28;4.45;;;4.10;;
37131;SDS011;23035;50.032;21.978;2023-04-25T08:22:35;5.35;;;3.55;;
37131;SDS011;23035;50.032;21.978;2023-04-25T08:28:01;14.02;;;9.57;;
37131;SDS011;23035;50.032;21.978;2023-04-25T08:33:08;9.82;;;7.80;;
37131;SDS011;23035;50.032;21.978;2023-04-25T08:38:35;8.50;;;5.90;;
37131;SDS011;23035;50.032;21.978;2023-04-25T08:43:45;6.20;;;4.85;;
37131;SDS011;23035;50.032;21.978;2023-04-25T08:48:55;5.63;;;4.68;;
37131;SDS011;23035;50.032;21.978;2023-04-25T08:54:09;5.28;;;4.78;;
37131;SDS011;23035;50.032;21.978;2023-04-25T08:59:19;5.32;;;4.82;;
37131;SDS011;23035;50.032;21.978;2023-04-25T09:04:26;5.47;;;4.43;;
37131;SDS011;23035;50.032;21.978;2023-04-25T09:09:31;6.05;;;4.80;;
37131;SDS011;23035;50.032;21.978;2023-04-25T09:14:35;6.78;;;4.70;;
37131;SDS011;23035;50.032;21.978;2023-04-25T09:19:52;6.10;;;5.50;;
37131;SDS011;23035;50.032;21.978;2023-04-25T09:25:07;7.40;;;5.30;;
37131;SDS011;23035;50.032;21.978;2023-04-25T09:30:17;9.27;;;6.40;;
37131;SDS011;23035;50.032;21.978;2023-04-25T09:35:45;5.55;;;5.00;;
37131;SDS011;23035;50.032;21.978;2023-04-25T09:41:05;5.47;;;4.40;;
37131;SDS011;23035;50.032;21.978;2023-04-25T09:46:17;5.30;;;4.80;;
37131;SDS011;23035;50.032;21.978;2023-04-25T09:51:30;5.47;;;4.88;;
37131;SDS011;23035;50.032;21.978;2023-04-25T09:56:39;10.95;;;5.65;;
37131;SDS011;23035;50.032;21.978;2023-04-25T10:01:47;7.53;;;5.80;;
37131;SDS011;23035;50.032;21.978;2023-04-25T10:07:03;8.52;;;6.68;;
37131;SDS011;23035;50.032;21.978;2023-04-25T10:12:12;8.38;;;6.18;;
37131;SDS011;23035;50.032;21.978;2023-04-25T10:17:18;10.90;;;5.50;;
37131;SDS011;23035;50.032;21.978;2023-04-25T10:22:29;8.07;;;5.75;;
37131;SDS011;23035;50.032;21.978;2023-04-25T10:27:41;6.72;;;5.35;;
37131;SDS011;23035;50.032;21.978;2023-04-25T10:32:50;12.77;;;5.90;;
37131;SDS011;23035;50.032;21.978;2023-04-25T10:38:02;7.15;;;6.45;;
37131;SDS011;23035;50.032;21.978;2023-04-25T10:48:46;8.77;;;7.22;;
37131;SDS011;23035;50.032;21.978;2023-04-25T10:53:57;9.10;;;7.00;;
37131;SDS011;23035;50.032;21.978;2023-04-25T10:59:07;10.77;;;8.23;;
37131;SDS011;23035;50.032;21.978;2023-04-25T11:04:22;9.20;;;6.93;;
37131;SDS011;23035;50.032;21.978;2023-04-25T11:09:29;10.15;;;6.75;;
37131;SDS011;23035;50.032;21.978;2023-04-25T11:14:37;10.40;;;7.40;;
37131;SDS011;23035;50.032;21.978;2023-04-25T11:19:44;10.95;;;8.05;;
37131;SDS011;23035;50.032;21.978;2023-04-25T11:24:54;8.55;;;7.63;;
37131;SDS011;23035;50.032;21.978;2023-04-25T11:30:11;12.18;;;8.50;;
37131;SDS011;23035;50.032;21.978;2023-04-25T11:35:19;11.85;;;8.32;;
37131;SDS011;23035;50.032;21.978;2023-04-25T11:40:26;10.60;;;8.23;;
37131;SDS011;23035;50.032;21.978;2023-04-25T11:45:36;11.88;;;7.47;;
37131;SDS011;23035;50.032;21.978;2023-04-25T11:50:42;9.73;;;7.82;;
37131;SDS011;23035;50.032;21.978;2023-04-25T11:55:50;7.53;;;6.70;;
37131;SDS011;23035;50.032;21.978;2023-04-25T12:00:58;10.63;;;7.75;;
37131;SDS011;23035;50.032;21.978;2023-04-25T12:06:06;6.88;;;5.78;;
37131;SDS011;23035;50.032;21.978;2023-04-25T12:11:20;8.00;;;6.45;;
37131;SDS011;23035;50.032;21.978;2023-04-25T12:16:27;9.47;;;7.13;;
37131;SDS011;23035;50.032;21.978;2023-04-25T12:26:46;7.35;;;5.57;;
37131;SDS011;23035;50.032;21.978;2023-04-25T12:31:54;6.82;;;5.40;;
37131;SDS011;23035;50.032;21.978;2023-04-25T12:37:00;7.28;;;6.15;;
37131;SDS011;23035;50.032;21.978;2023-04-25T12:42:05;9.02;;;7.38;;
37131;SDS011;23035;50.032;21.978;2023-04-25T12:47:13;14.10;;;8.05;;
37131;SDS011;23035;50.032;21.978;2023-04-25T12:52:19;8.40;;;7.03;;
37131;SDS011;23035;50.032;21.978;2023-04-25T12:57:24;9.40;;;6.38;;
37131;SDS011;23035;50.032;21.978;2023-04-25T13:02:30;14.45;;;7.60;;
37131;SDS011;23035;50.032;21.978;2023-04-25T13:07:36;7.78;;;6.45;;
37131;SDS011;23035;50.032;21.978;2023-04-25T13:12:43;10.57;;;7.82;;
37131;SDS011;23035;50.032;21.978;2023-04-25T13:17:52;10.45;;;9.43;;
37131;SDS011;23035;50.032;21.978;2023-04-25T13:22:58;9.63;;;8.55;;
37131;SDS011;23035;50.032;21.978;2023-04-25T13:28:05;8.27;;;7.32;;
37131;SDS011;23035;50.032;21.978;2023-04-25T13:33:12;14.18;;;9.38;;
37131;SDS011;23035;50.032;21.978;2023-04-25T13:38:17;10.00;;;8.48;;
37131;SDS011;23035;50.032;21.978;2023-04-25T13:43:24;9.55;;;8.38;;
37131;SDS011;23035;50.032;21.978;2023-04-25T13:48:30;12.13;;;9.95;;
37131;SDS011;23035;50.032;21.978;2023-04-25T13:53:35;10.40;;;8.27;;
37131;SDS011;23035;50.032;21.978;2023-04-25T13:58:41;12.63;;;9.05;;
37131;SDS011;23035;50.032;21.978;2023-04-25T14:08:53;10.67;;;8.20;;
37131;SDS011;23035;50.032;21.978;2023-04-25T14:13:58;10.38;;;8.00;;
37131;SDS011;23035;50.032;21.978;2023-04-25T14:19:04;11.20;;;8.50;;
37131;SDS011;23035;50.032;21.978;2023-04-25T14:24:09;10.88;;;7.82;;
37131;SDS011;23035;50.032;21.978;2023-04-25T14:29:14;10.75;;;7.85;;
37131;SDS011;23035;50.032;21.978;2023-04-25T14:34:19;9.05;;;6.65;;
37131;SDS011;23035;50.032;21.978;2023-04-25T14:39:24;12.05;;;7.20;;
37131;SDS011;23035;50.032;21.978;2023-04-25T14:44:31;12.25;;;8.35;;
37131;SDS011;23035;50.032;21.978;2023-04-25T14:49:36;11.25;;;7.00;;
37131;SDS011;23035;50.032;21.978;2023-04-25T14:54:40;8.98;;;6.07;;
37131;SDS011;23035;50.032;21.978;2023-04-25T14:59:46;11.05;;;6.90;;
37131;SDS011;23035;50.032;21.978;2023-04-25T15:04:53;10.93;;;6.03;;
37131;SDS011;23035;50.032;21.978;2023-04-25T15:09:59;7.55;;;5.07;;
37131;SDS011;23035;50.032;21.978;2023-04-25T15:15:06;7.63;;;5.13;;
37131;SDS011;23035;50.032;21.978;2023-04-25T15:20:29;7.70;;;4.75;;
37131;SDS011;23035;50.032;21.978;2023-04-25T15:25:37;7.60;;;4.32;;
37131;SDS011;23035;50.032;21.978;2023-04-25T15:30:44;5.20;;;4.65;;
37131;SDS011;23035;50.032;21.978;2023-04-25T15:35:51;7.20;;;4.65;;
37131;SDS011;23035;50.032;21.978;2023-04-25T15:40:57;7.10;;;4.70;;
37131;SDS011;23035;50.032;21.978;2023-04-25T15:46:05;7.72;;;5.00;;
37131;SDS011;23035;50.032;21.978;2023-04-25T15:51:13;6.18;;;5.22;;
37131;SDS011;23035;50.032;21.978;2023-04-25T15:56:20;5.97;;;5.18;;
37131;SDS011;23035;50.032;21.978;2023-04-25T16:01:26;13.38;;;6.20;;
37131;SDS011;23035;50.032;21.978;2023-04-25T16:06:35;8.35;;;6.40;;
37131;SDS011;23035;50.032;21.978;2023-04-25T16:11:41;9.38;;;7.07;;
37131;SDS011;23035;50.032;21.978;2023-04-25T16:16:48;8.18;;;6.57;;
37131;SDS011;23035;50.032;21.978;2023-04-25T16:21:55;9.55;;;6.50;;
37131;SDS011;23035;50.032;21.978;2023-04-25T16:26:59;10.93;;;7.25;;
37131;SDS011;23035;50.032;21.978;2023-04-25T16:32:04;10.90;;;7.70;;
37131;SDS011;23035;50.032;21.978;2023-04-25T16:37:10;13.40;;;9.80;;
37131;SDS011;23035;50.032;21.978;2023-04-25T16:42:14;12.90;;;9.23;;
37131;SDS011;23035;50.032;21.978;2023-04-25T16:47:18;13.82;;;9.32;;
37131;SDS011;23035;50.032;21.978;2023-04-25T16:52:26;12.45;;;8.00;;
37131;SDS011;23035;50.032;21.978;2023-04-25T16:57:31;11.32;;;7.85;;
37131;SDS011;23035;50.032;21.978;2023-04-25T17:02:35;11.10;;;7.50;;
37131;SDS011;23035;50.032;21.978;2023-04-25T17:07:40;7.20;;;5.60;;
37131;SDS011;23035;50.032;21.978;2023-04-25T17:12:44;7.60;;;5.30;;
37131;SDS011;23035;50.032;21.978;2023-04-25T17:17:49;8.00;;;5.32;;
37131;SDS011;23035;50.032;21.978;2023-04-25T17:22:55;6.07;;;4.60;;
37131;SDS011;23035;50.032;21.978;2023-04-25T17:28:02;9.38;;;5.88;;
37131;SDS011;23035;50.032;21.978;2023-04-25T17:33:09;11.15;;;5.32;;
37131;SDS011;23035;50.032;21.978;2023-04-25T17:38:14;6.50;;;4.30;;
37131;SDS011;23035;50.032;21.978;2023-04-25T17:43:19;6.85;;;4.90;;
37131;SDS011;23035;50.032;21.978;2023-04-25T17:48:23;10.13;;;5.25;;
37131;SDS011;23035;50.032;21.978;2023-04-25T17:53:29;8.63;;;5.00;;
37131;SDS011;23035;50.032;21.978;2023-04-25T17:58:33;9.45;;;5.30;;
37131;SDS011;23035;50.032;21.978;2023-04-25T18:03:37;8.50;;;5.57;;
37131;SDS011;23035;50.032;21.978;2023-04-25T18:08:45;9.35;;;5.32;;
37131;SDS011;23035;50.032;21.978;2023-04-25T18:13:49;10.73;;;6.13;;
37131;SDS011;23035;50.032;21.978;2023-04-25T18:18:53;7.68;;;5.85;;
37131;SDS011;23035;50.032;21.978;2023-04-25T18:24:08;9.07;;;5.00;;
37131;SDS011;23035;50.032;21.978;2023-04-25T18:29:14;9.55;;;5.82;;
37131;SDS011;23035;50.032;21.978;2023-04-25T18:34:34;16.40;;;8.40;;
37131;SDS011;23035;50.032;21.978;2023-04-25T18:39:39;10.90;;;5.30;;
37131;SDS011;23035;50.032;21.978;2023-04-25T18:44:43;7.65;;;5.63;;
37131;SDS011;23035;50.032;21.978;2023-04-25T18:49:47;10.48;;;6.00;;
37131;SDS011;23035;50.032;21.978;2023-04-25T18:54:53;8.90;;;5.50;;
37131;SDS011;23035;50.032;21.978;2023-04-25T18:59:58;16.10;;;6.80;;
37131;SDS011;23035;50.032;21.978;2023-04-25T19:05:06;8.77;;;6.10;;
37131;SDS011;23035;50.032;21.978;2023-04-25T19:10:13;12.00;;;6.73;;
37131;SDS011;23035;50.032;21.978;2023-04-25T19:15:17;10.82;;;6.13;;
37131;SDS011;23035;50.032;21.978;2023-04-25T19:20:21;11.18;;;6.63;;
37131;SDS011;23035;50.032;21.978;2023-04-25T19:25:26;13.13;;;7.32;;
37131;SDS011;23035;50.032;21.978;2023-04-25T19:30:31;11.15;;;7.07;;
37131;SDS011;23035;50.032;21.978;2023-04-25T19:35:35;11.40;;;7.38;;
37131;SDS011;23035;50.032;21.978;2023-04-25T19:40:40;10.43;;;7.00;;
37131;SDS011;23035;50.032;21.978;2023-04-25T19:45:44;12.68;;;7.38;;
37131;SDS011;23035;50.032;21.978;2023-04-25T19:50:48;10.93;;;7.07;;
37131;SDS011;23035;50.032;21.978;2023-04-25T19:55:54;12.25;;;7.00;;
37131;SDS011;23035;50.032;21.978;2023-04-25T20:00:58;11.43;;;6.65;;
37131;SDS011;23035;50.032;21.978;2023-04-25T20:06:02;12.25;;;7.43;;
37131;SDS011;23035;50.032;21.978;2023-04-25T20:11:08;9.13;;;6.22;;
37131;SDS011;23035;50.032;21.978;2023-04-25T20:16:13;10.75;;;6.80;;
37131;SDS011;23035;50.032;21.978;2023-04-25T20:21:21;11.82;;;7.47;;
37131;SDS011;23035;50.032;21.978;2023-04-25T20:26:27;13.07;;;7.28;;
37131;SDS011;23035;50.032;21.978;2023-04-25T20:31:35;9.23;;;6.55;;
37131;SDS011;23035;50.032;21.978;2023-04-25T20:36:39;12.68;;;7.10;;
37131;SDS011;23035;50.032;21.978;2023-04-25T20:41:44;15.52;;;7.95;;
37131;SDS011;23035;50.032;21.978;2023-04-25T20:46:48;14.52;;;8.23;;
37131;SDS011;23035;50.032;21.978;2023-04-25T20:51:53;12.18;;;7.03;;
37131;SDS011;23035;50.032;21.978;2023-04-25T20:56:58;13.75;;;8.30;;
37131;SDS011;23035;50.032;21.978;2023-04-25T21:02:02;15.80;;;8.43;;
37131;SDS011;23035;50.032;21.978;2023-04-25T21:07:07;13.27;;;7.38;;
37131;SDS011;23035;50.032;21.978;2023-04-25T21:12:15;12.45;;;8.00;;
37131;SDS011;23035;50.032;21.978;2023-04-25T21:17:19;10.20;;;7.50;;
37131;SDS011;23035;50.032;21.978;2023-04-25T21:22:23;12.80;;;7.38;;
37131;SDS011;23035;50.032;21.978;2023-04-25T21:27:28;11.43;;;8.15;;
37131;SDS011;23035;50.032;21.978;2023-04-25T21:32:32;12.25;;;7.50;;
37131;SDS011;23035;50.032;21.978;2023-04-25T21:37:37;13.65;;;8.20;;
37131;SDS011;23035;50.032;21.978;2023-04-25T21:42:44;15.35;;;8.82;;
37131;SDS011;23035;50.032;21.978;2023-04-25T21:47:52;12.05;;;7.82;;
37131;SDS011;23035;50.032;21.978;2023-04-25T21:52:57;12.30;;;8.38;;
37131;SDS011;23035;50.032;21.978;2023-04-25T21:58:02;11.18;;;7.20;;
37131;SDS011;23035;50.032;21.978;2023-04-25T22:03:06;14.60;;;8.40;;
37131;SDS011;23035;50.032;21.978;2023-04-25T22:08:10;11.48;;;6.80;;
37131;SDS011;23035;50.032;21.978;2023-04-25T22:13:15;17.63;;;8.07;;
37131;SDS011;23035;50.032;21.978;2023-04-25T22:18:19;12.25;;;7.63;;
37131;SDS011;23035;50.032;21.978;2023-04-25T22:23:23;11.88;;;7.65;;
37131;SDS011;23035;50.032;21.978;2023-04-25T22:28:29;12.77;;;8.70;;
37131;SDS011;23035;50.032;21.978;2023-04-25T22:33:34;15.07;;;7.97;;
37131;SDS011;23035;50.032;21.978;2023-04-25T22:38:39;14.93;;;8.68;;
37131;SDS011;23035;50.032;21.978;2023-04-25T22:43:44;13.00;;;8.02;;
37131;SDS011;23035;50.032;21.978;2023-04-25T22:48:48;14.32;;;7.70;;
37131;SDS011;23035;50.032;21.978;2023-04-25T22:53:52;12.57;;;8.13;;
37131;SDS011;23035;50.032;21.978;2023-04-25T22:58:58;9.15;;;7.20;;
37131;SDS011;23035;50.032;21.978;2023-04-25T23:04:03;15.63;;;8.35;;
37131;SDS011;23035;50.032;21.978;2023-04-25T23:09:08;9.95;;;5.93;;
37131;SDS011;23035;50.032;21.978;2023-04-25T23:14:15;11.17;;;7.97;;
37131;SDS011;23035;50.032;21.978;2023-04-25T23:19:18;13.57;;;7.33;;
37131;SDS011;23035;50.032;21.978;2023-04-25T23:24:22;15.63;;;6.88;;
37131;SDS011;23035;50.032;21.978;2023-04-25T23:29:28;11.30;;;7.35;;
37131;SDS011;23035;50.032;21.978;2023-04-25T23:34:33;13.98;;;6.13;;
37131;SDS011;23035;50.032;21.978;2023-04-25T23:39:37;15.45;;;8.32;;
37131;SDS011;23035;50.032;21.978;2023-04-25T23:44:43;13.10;;;7.38;;
37131;SDS011;23035;50.032;21.978;2023-04-25T23:49:47;13.18;;;8.13;;
37131;SDS011;23035;50.032;21.978;2023-04-25T23:54:51;13.10;;;8.48;;
37131;SDS011;23035;50.032;21.978;2023-04-25T23:59:57;12.98;;;7.90;;
